sensor_id;sensor_type;location;lat;lon;timestamp;temperature;humidity
25570;DHT22;17955;45.542;9.238;2022-08-19T00:00:36;21.30;99.90
25570;DHT22;17955;45.542;9.238;2022-08-19T00:03:03;21.20;99.90
25570;DHT22;17955;45.542;9.238;2022-08-19T00:05:30;21.20;99.90
25570;DHT22;17955;45.542;9.238;2022-08-19T00:07:58;21.10;99.90
25570;DHT22;17955;45.542;9.238;2022-08-19T00:10:26;21.40;99.90
25570;DHT22;17955;45.542;9.238;2022-08-19T00:12:53;20.90;99.90
25570;DHT22;17955;45.542;9.238;2022-08-19T00:15:21;21.00;99.90
25570;DHT22;17955;45.542;9.238;2022-08-19T00:17:48;21.00;99.90
25570;DHT22;17955;45.542;9.238;2022-08-19T00:20:18;21.00;99.90
25570;DHT22;17955;45.542;9.238;2022-08-19T00:22:45;20.90;99.90
25570;DHT22;17955;45.542;9.238;2022-08-19T00:25:13;21.00;99.90
25570;DHT22;17955;45.542;9.238;2022-08-19T00:27:42;21.00;99.90
25570;DHT22;17955;45.542;9.238;2022-08-19T00:30:10;21.10;99.90
25570;DHT22;17955;45.542;9.238;2022-08-19T00:32:37;20.90;99.90
25570;DHT22;17955;45.542;9.238;2022-08-19T00:35:05;21.10;99.90
25570;DHT22;17955;45.542;9.238;2022-08-19T00:37:33;21.00;99.90
25570;DHT22;17955;45.542;9.238;2022-08-19T00:40:01;21.20;99.90
25570;DHT22;17955;45.542;9.238;2022-08-19T00:42:29;21.10;99.90
25570;DHT22;17955;45.542;9.238;2022-08-19T00:44:57;21.30;99.90
25570;DHT22;17955;45.542;9.238;2022-08-19T00:47:24;21.30;99.90
25570;DHT22;17955;45.542;9.238;2022-08-19T00:49:53;21.10;99.90
25570;DHT22;17955;45.542;9.238;2022-08-19T00:52:24;21.00;99.90
25570;DHT22;17955;45.542;9.238;2022-08-19T00:54:55;21.20;99.90
25570;DHT22;17955;45.542;9.238;2022-08-19T00:57:27;21.00;99.90
25570;DHT22;17955;45.542;9.238;2022-08-19T00:59:56;21.10;99.90
25570;DHT22;17955;45.542;9.238;2022-08-19T01:02:25;21.00;99.90
25570;DHT22;17955;45.542;9.238;2022-08-19T01:04:53;21.00;99.90
25570;DHT22;17955;45.542;9.238;2022-08-19T01:07:20;20.80;99.90
25570;DHT22;17955;45.542;9.238;2022-08-19T01:09:47;20.80;99.90
25570;DHT22;17955;45.542;9.238;2022-08-19T01:12:14;20.90;99.90
25570;DHT22;17955;45.542;9.238;2022-08-19T01:14:42;20.90;99.90
25570;DHT22;17955;45.542;9.238;2022-08-19T01:17:11;21.00;99.90
25570;DHT22;17955;45.542;9.238;2022-08-19T01:19:41;20.70;99.90
25570;DHT22;17955;45.542;9.238;2022-08-19T01:22:11;20.80;99.90
25570;DHT22;17955;45.542;9.238;2022-08-19T01:24:40;20.90;99.90
25570;DHT22;17955;45.542;9.238;2022-08-19T01:27:08;21.00;99.90
25570;DHT22;17955;45.542;9.238;2022-08-19T01:29:39;20.90;99.90
25570;DHT22;17955;45.542;9.238;2022-08-19T01:32:07;20.80;99.90
25570;DHT22;17955;45.542;9.238;2022-08-19T01:34:35;21.00;99.90
25570;DHT22;17955;45.542;9.238;2022-08-19T01:37:07;21.10;99.90
25570;DHT22;17955;45.542;9.238;2022-08-19T01:39:37;20.90;99.90
25570;DHT22;17955;45.542;9.238;2022-08-19T01:42:07;21.30;99.90
25570;DHT22;17955;45.542;9.238;2022-08-19T01:47:03;20.80;99.90
25570;DHT22;17955;45.542;9.238;2022-08-19T01:49:31;21.00;99.90
25570;DHT22;17955;45.542;9.238;2022-08-19T01:51:59;21.00;99.90
25570;DHT22;17955;45.542;9.238;2022-08-19T01:54:27;21.00;99.90
25570;DHT22;17955;45.542;9.238;2022-08-19T01:56:57;20.70;99.90
25570;DHT22;17955;45.542;9.238;2022-08-19T01:59:28;20.90;99.90
25570;DHT22;17955;45.542;9.238;2022-08-19T02:01:55;21.00;99.90
25570;DHT22;17955;45.542;9.238;2022-08-19T02:06:51;20.80;99.90
25570;DHT22;17955;45.542;9.238;2022-08-19T02:09:18;21.10;99.90
25570;DHT22;17955;45.542;9.238;2022-08-19T02:16:40;20.90;99.90
25570;DHT22;17955;45.542;9.238;2022-08-19T02:19:07;20.90;99.90
25570;DHT22;17955;45.542;9.238;2022-08-19T02:21:36;21.00;99.90
25570;DHT22;17955;45.542;9.238;2022-08-19T02:24:04;20.60;99.90
25570;DHT22;17955;45.542;9.238;2022-08-19T02:26:32;20.70;99.90
25570;DHT22;17955;45.542;9.238;2022-08-19T02:28:59;21.00;99.90
25570;DHT22;17955;45.542;9.238;2022-08-19T02:31:27;20.80;99.90
25570;DHT22;17955;45.542;9.238;2022-08-19T02:33:56;20.90;99.90
25570;DHT22;17955;45.542;9.238;2022-08-19T02:36:24;20.90;99.90
25570;DHT22;17955;45.542;9.238;2022-08-19T02:38:52;20.80;99.90
25570;DHT22;17955;45.542;9.238;2022-08-19T02:41:20;20.70;99.90
25570;DHT22;17955;45.542;9.238;2022-08-19T02:43:47;20.60;99.90
25570;DHT22;17955;45.542;9.238;2022-08-19T02:46:17;20.90;99.90
25570;DHT22;17955;45.542;9.238;2022-08-19T02:48:47;20.80;99.90
25570;DHT22;17955;45.542;9.238;2022-08-19T02:51:18;20.80;99.90
25570;DHT22;17955;45.542;9.238;2022-08-19T02:53:45;20.70;99.90
25570;DHT22;17955;45.542;9.238;2022-08-19T02:56:12;20.80;99.90
25570;DHT22;17955;45.542;9.238;2022-08-19T02:58:39;20.70;99.90
25570;DHT22;17955;45.542;9.238;2022-08-19T03:01:07;20.80;99.90
25570;DHT22;17955;45.542;9.238;2022-08-19T03:03:34;20.60;99.90
25570;DHT22;17955;45.542;9.238;2022-08-19T03:06:06;20.80;99.90
25570;DHT22;17955;45.542;9.238;2022-08-19T03:08:35;20.70;99.90
25570;DHT22;17955;45.542;9.238;2022-08-19T03:11:02;20.50;99.90
25570;DHT22;17955;45.542;9.238;2022-08-19T03:13:29;20.80;99.90
25570;DHT22;17955;45.542;9.238;2022-08-19T03:15:56;20.90;99.90
25570;DHT22;17955;45.542;9.238;2022-08-19T03:18:24;21.00;99.90
25570;DHT22;17955;45.542;9.238;2022-08-19T03:20:52;20.40;99.90
25570;DHT22;17955;45.542;9.238;2022-08-19T03:23:20;20.70;99.90
25570;DHT22;17955;45.542;9.238;2022-08-19T03:25:51;20.50;99.90
25570;DHT22;17955;45.542;9.238;2022-08-19T03:28:19;20.60;99.90
25570;DHT22;17955;45.542;9.238;2022-08-19T03:30:55;20.40;99.90
25570;DHT22;17955;45.542;9.238;2022-08-19T03:33:24;20.70;99.90
25570;DHT22;17955;45.542;9.238;2022-08-19T03:36:03;20.40;99.90
25570;DHT22;17955;45.542;9.238;2022-08-19T03:38:30;20.40;99.90
25570;DHT22;17955;45.542;9.238;2022-08-19T03:41:02;20.60;99.90
25570;DHT22;17955;45.542;9.238;2022-08-19T03:43:32;20.60;99.90
25570;DHT22;17955;45.542;9.238;2022-08-19T03:46:02;20.70;99.90
25570;DHT22;17955;45.542;9.238;2022-08-19T03:48:30;20.70;99.90
25570;DHT22;17955;45.542;9.238;2022-08-19T03:50:58;20.60;99.90
25570;DHT22;17955;45.542;9.238;2022-08-19T03:53:26;20.60;99.90
25570;DHT22;17955;45.542;9.238;2022-08-19T03:55:53;20.60;99.90
25570;DHT22;17955;45.542;9.238;2022-08-19T03:58:22;21.10;99.90
25570;DHT22;17955;45.542;9.238;2022-08-19T04:00:49;20.60;99.90
25570;DHT22;17955;45.542;9.238;2022-08-19T04:03:16;20.60;99.90
25570;DHT22;17955;45.542;9.238;2022-08-19T04:05:44;20.40;99.90
25570;DHT22;17955;45.542;9.238;2022-08-19T04:08:12;20.50;99.90
25570;DHT22;17955;45.542;9.238;2022-08-19T04:13:08;20.50;99.90
25570;DHT22;17955;45.542;9.238;2022-08-19T04:15:40;20.50;99.90
25570;DHT22;17955;45.542;9.238;2022-08-19T04:18:08;20.60;99.90
25570;DHT22;17955;45.542;9.238;2022-08-19T04:20:42;20.60;99.90
25570;DHT22;17955;45.542;9.238;2022-08-19T04:23:10;20.70;99.90
25570;DHT22;17955;45.542;9.238;2022-08-19T04:25:38;20.60;99.90
25570;DHT22;17955;45.542;9.238;2022-08-19T04:28:06;20.60;99.90
25570;DHT22;17955;45.542;9.238;2022-08-19T04:30:41;20.80;99.90
25570;DHT22;17955;45.542;9.238;2022-08-19T04:33:09;20.70;99.90
25570;DHT22;17955;45.542;9.238;2022-08-19T04:35:38;20.50;99.90
25570;DHT22;17955;45.542;9.238;2022-08-19T04:38:06;20.20;99.90
25570;DHT22;17955;45.542;9.238;2022-08-19T04:40:33;20.60;99.90
25570;DHT22;17955;45.542;9.238;2022-08-19T04:43:17;20.40;99.90
25570;DHT22;17955;45.542;9.238;2022-08-19T04:45:46;20.60;99.90
25570;DHT22;17955;45.542;9.238;2022-08-19T04:50:42;20.80;99.90
25570;DHT22;17955;45.542;9.238;2022-08-19T04:53:09;20.50;99.90
25570;DHT22;17955;45.542;9.238;2022-08-19T04:55:39;20.70;99.90
25570;DHT22;17955;45.542;9.238;2022-08-19T04:58:07;20.70;99.90
25570;DHT22;17955;45.542;9.238;2022-08-19T05:03:03;20.40;99.90
25570;DHT22;17955;45.542;9.238;2022-08-19T05:07:58;20.50;99.90
25570;DHT22;17955;45.542;9.238;2022-08-19T05:10:25;20.30;99.90
25570;DHT22;17955;45.542;9.238;2022-08-19T05:12:52;20.60;99.90
25570;DHT22;17955;45.542;9.238;2022-08-19T05:20:28;20.60;99.90
25570;DHT22;17955;45.542;9.238;2022-08-19T05:28:10;20.40;99.90
25570;DHT22;17955;45.542;9.238;2022-08-19T05:30:37;20.50;99.90
25570;DHT22;17955;45.542;9.238;2022-08-19T05:35:38;20.40;99.90
25570;DHT22;17955;45.542;9.238;2022-08-19T05:40:34;20.30;99.90
25570;DHT22;17955;45.542;9.238;2022-08-19T05:43:03;20.70;99.90
25570;DHT22;17955;45.542;9.238;2022-08-19T05:52:53;20.30;99.90
25570;DHT22;17955;45.542;9.238;2022-08-19T05:55:20;20.20;99.90
25570;DHT22;17955;45.542;9.238;2022-08-19T06:00:16;20.40;99.90
25570;DHT22;17955;45.542;9.238;2022-08-19T06:02:43;20.60;99.90
25570;DHT22;17955;45.542;9.238;2022-08-19T06:05:11;20.80;99.90
25570;DHT22;17955;45.542;9.238;2022-08-19T06:07:38;20.30;99.90
25570;DHT22;17955;45.542;9.238;2022-08-19T06:10:09;20.10;99.90
25570;DHT22;17955;45.542;9.238;2022-08-19T06:12:37;20.20;99.90
25570;DHT22;17955;45.542;9.238;2022-08-19T06:15:07;20.30;99.90
25570;DHT22;17955;45.542;9.238;2022-08-19T06:17:35;20.00;99.90
25570;DHT22;17955;45.542;9.238;2022-08-19T06:20:03;20.20;99.90
25570;DHT22;17955;45.542;9.238;2022-08-19T06:27:26;20.20;99.90
25570;DHT22;17955;45.542;9.238;2022-08-19T06:32:22;20.10;99.90
25570;DHT22;17955;45.542;9.238;2022-08-19T06:37:16;20.10;99.90
25570;DHT22;17955;45.542;9.238;2022-08-19T06:39:44;20.40;99.90
25570;DHT22;17955;45.542;9.238;2022-08-19T06:44:44;20.30;99.90
25570;DHT22;17955;45.542;9.238;2022-08-19T06:47:13;20.60;99.90
25570;DHT22;17955;45.542;9.238;2022-08-19T06:49:41;20.80;99.90
25570;DHT22;17955;45.542;9.238;2022-08-19T06:52:08;20.80;99.90
25570;DHT22;17955;45.542;9.238;2022-08-19T06:54:37;20.70;99.90
25570;DHT22;17955;45.542;9.238;2022-08-19T06:57:05;20.80;99.90
25570;DHT22;17955;45.542;9.238;2022-08-19T06:59:34;21.30;99.90
25570;DHT22;17955;45.542;9.238;2022-08-19T07:02:05;21.40;99.90
25570;DHT22;17955;45.542;9.238;2022-08-19T07:04:35;21.60;99.90
25570;DHT22;17955;45.542;9.238;2022-08-19T07:07:05;21.50;99.90
25570;DHT22;17955;45.542;9.238;2022-08-19T07:09:33;21.40;99.90
25570;DHT22;17955;45.542;9.238;2022-08-19T07:12:03;21.60;99.90
25570;DHT22;17955;45.542;9.238;2022-08-19T07:14:30;21.70;99.90
25570;DHT22;17955;45.542;9.238;2022-08-19T07:16:57;21.70;99.90
25570;DHT22;17955;45.542;9.238;2022-08-19T07:19:26;21.60;99.90
25570;DHT22;17955;45.542;9.238;2022-08-19T07:21:55;21.40;99.90
25570;DHT22;17955;45.542;9.238;2022-08-19T07:24:24;21.40;99.90
25570;DHT22;17955;45.542;9.238;2022-08-19T07:26:53;21.60;99.90
25570;DHT22;17955;45.542;9.238;2022-08-19T07:29:21;21.50;99.90
25570;DHT22;17955;45.542;9.238;2022-08-19T07:31:49;21.50;99.90
25570;DHT22;17955;45.542;9.238;2022-08-19T07:34:16;21.70;99.90
25570;DHT22;17955;45.542;9.238;2022-08-19T07:36:45;21.50;99.90
25570;DHT22;17955;45.542;9.238;2022-08-19T07:39:15;21.90;99.90
25570;DHT22;17955;45.542;9.238;2022-08-19T07:41:43;21.60;99.90
25570;DHT22;17955;45.542;9.238;2022-08-19T07:44:12;21.30;99.90
25570;DHT22;17955;45.542;9.238;2022-08-19T07:46:42;21.60;99.90
25570;DHT22;17955;45.542;9.238;2022-08-19T07:49:10;21.80;99.90
25570;DHT22;17955;45.542;9.238;2022-08-19T07:51:47;21.50;99.90
25570;DHT22;17955;45.542;9.238;2022-08-19T07:56:41;21.90;99.90
25570;DHT22;17955;45.542;9.238;2022-08-19T07:59:09;21.60;99.90
25570;DHT22;17955;45.542;9.238;2022-08-19T08:01:37;21.50;99.90
25570;DHT22;17955;45.542;9.238;2022-08-19T08:04:06;21.80;99.90
25570;DHT22;17955;45.542;9.238;2022-08-19T08:06:52;21.80;99.90
25570;DHT22;17955;45.542;9.238;2022-08-19T08:09:40;21.90;99.90
25570;DHT22;17955;45.542;9.238;2022-08-19T08:12:09;22.10;99.90
25570;DHT22;17955;45.542;9.238;2022-08-19T08:14:40;22.20;99.90
25570;DHT22;17955;45.542;9.238;2022-08-19T08:17:10;22.20;99.90
25570;DHT22;17955;45.542;9.238;2022-08-19T08:19:38;22.10;99.90
25570;DHT22;17955;45.542;9.238;2022-08-19T08:22:08;22.40;99.90
25570;DHT22;17955;45.542;9.238;2022-08-19T08:24:56;22.10;99.90
25570;DHT22;17955;45.542;9.238;2022-08-19T08:27:25;22.20;99.90
25570;DHT22;17955;45.542;9.238;2022-08-19T08:29:54;22.40;99.90
25570;DHT22;17955;45.542;9.238;2022-08-19T08:32:21;22.70;99.90
25570;DHT22;17955;45.542;9.238;2022-08-19T08:34:48;22.40;99.90
25570;DHT22;17955;45.542;9.238;2022-08-19T08:37:17;22.80;99.90
25570;DHT22;17955;45.542;9.238;2022-08-19T08:39:44;22.80;99.90
25570;DHT22;17955;45.542;9.238;2022-08-19T08:42:17;22.70;99.90
25570;DHT22;17955;45.542;9.238;2022-08-19T08:44:49;22.70;99.90
25570;DHT22;17955;45.542;9.238;2022-08-19T08:47:20;23.10;99.90
25570;DHT22;17955;45.542;9.238;2022-08-19T08:49:51;23.00;99.90
25570;DHT22;17955;45.542;9.238;2022-08-19T08:52:24;23.40;99.90
25570;DHT22;17955;45.542;9.238;2022-08-19T08:54:54;23.40;99.90
25570;DHT22;17955;45.542;9.238;2022-08-19T08:57:27;23.40;99.90
25570;DHT22;17955;45.542;9.238;2022-08-19T08:59:57;23.30;99.90
25570;DHT22;17955;45.542;9.238;2022-08-19T09:02:30;23.50;99.90
25570;DHT22;17955;45.542;9.238;2022-08-19T09:04:56;22.80;99.90
25570;DHT22;17955;45.542;9.238;2022-08-19T09:07:34;23.10;99.90
25570;DHT22;17955;45.542;9.238;2022-08-19T09:10:10;22.90;99.90
25570;DHT22;17955;45.542;9.238;2022-08-19T09:12:47;22.70;99.90
25570;DHT22;17955;45.542;9.238;2022-08-19T09:15:24;23.10;99.90
25570;DHT22;17955;45.542;9.238;2022-08-19T09:17:52;22.90;99.90
25570;DHT22;17955;45.542;9.238;2022-08-19T09:20:21;23.00;99.90
25570;DHT22;17955;45.542;9.238;2022-08-19T09:22:50;22.80;99.90
25570;DHT22;17955;45.542;9.238;2022-08-19T09:25:19;22.90;99.90
25570;DHT22;17955;45.542;9.238;2022-08-19T09:27:47;22.80;99.90
25570;DHT22;17955;45.542;9.238;2022-08-19T09:30:21;25.10;99.90
25570;DHT22;17955;45.542;9.238;2022-08-19T09:32:50;22.70;99.90
25570;DHT22;17955;45.542;9.238;2022-08-19T09:35:19;23.10;99.90
25570;DHT22;17955;45.542;9.238;2022-08-19T09:37:47;22.60;99.90
25570;DHT22;17955;45.542;9.238;2022-08-19T09:40:16;23.00;99.90
25570;DHT22;17955;45.542;9.238;2022-08-19T09:42:44;22.90;99.90
25570;DHT22;17955;45.542;9.238;2022-08-19T09:45:13;22.80;99.90
25570;DHT22;17955;45.542;9.238;2022-08-19T09:47:40;22.90;99.90
25570;DHT22;17955;45.542;9.238;2022-08-19T09:50:09;23.10;99.90
25570;DHT22;17955;45.542;9.238;2022-08-19T09:52:37;23.10;99.90
25570;DHT22;17955;45.542;9.238;2022-08-19T09:55:06;23.10;99.90
25570;DHT22;17955;45.542;9.238;2022-08-19T09:57:35;23.00;99.90
25570;DHT22;17955;45.542;9.238;2022-08-19T10:00:04;23.10;99.90
25570;DHT22;17955;45.542;9.238;2022-08-19T10:02:33;23.20;99.90
25570;DHT22;17955;45.542;9.238;2022-08-19T10:05:00;23.50;99.90
25570;DHT22;17955;45.542;9.238;2022-08-19T10:07:45;23.60;99.90
25570;DHT22;17955;45.542;9.238;2022-08-19T10:10:12;23.90;99.90
25570;DHT22;17955;45.542;9.238;2022-08-19T10:12:41;23.80;99.90
25570;DHT22;17955;45.542;9.238;2022-08-19T10:15:12;24.00;99.90
25570;DHT22;17955;45.542;9.238;2022-08-19T10:17:40;24.10;99.90
25570;DHT22;17955;45.542;9.238;2022-08-19T10:20:08;24.20;99.90
25570;DHT22;17955;45.542;9.238;2022-08-19T10:22:35;24.30;99.90
25570;DHT22;17955;45.542;9.238;2022-08-19T10:25:05;24.40;99.90
25570;DHT22;17955;45.542;9.238;2022-08-19T10:27:32;24.40;99.90
25570;DHT22;17955;45.542;9.238;2022-08-19T10:30:00;24.50;99.90
25570;DHT22;17955;45.542;9.238;2022-08-19T10:32:27;24.60;99.90
25570;DHT22;17955;45.542;9.238;2022-08-19T10:34:55;24.80;99.90
25570;DHT22;17955;45.542;9.238;2022-08-19T10:37:23;25.00;99.90
25570;DHT22;17955;45.542;9.238;2022-08-19T10:39:51;24.80;99.90
25570;DHT22;17955;45.542;9.238;2022-08-19T10:42:18;24.80;99.90
25570;DHT22;17955;45.542;9.238;2022-08-19T10:44:46;24.80;99.90
25570;DHT22;17955;45.542;9.238;2022-08-19T10:47:15;25.10;99.90
25570;DHT22;17955;45.542;9.238;2022-08-19T10:49:42;25.00;99.90
25570;DHT22;17955;45.542;9.238;2022-08-19T10:52:26;25.20;99.90
25570;DHT22;17955;45.542;9.238;2022-08-19T10:55:03;25.40;99.90
25570;DHT22;17955;45.542;9.238;2022-08-19T10:57:48;25.50;99.90
25570;DHT22;17955;45.542;9.238;2022-08-19T11:00:15;25.40;99.90
25570;DHT22;17955;45.542;9.238;2022-08-19T11:02:46;25.60;99.90
25570;DHT22;17955;45.542;9.238;2022-08-19T11:05:14;25.80;99.90
25570;DHT22;17955;45.542;9.238;2022-08-19T11:07:41;25.80;99.90
25570;DHT22;17955;45.542;9.238;2022-08-19T11:10:12;25.80;99.90
25570;DHT22;17955;45.542;9.238;2022-08-19T11:12:40;26.10;99.90
25570;DHT22;17955;45.542;9.238;2022-08-19T11:15:09;25.90;99.90
25570;DHT22;17955;45.542;9.238;2022-08-19T11:17:37;25.80;99.90
25570;DHT22;17955;45.542;9.238;2022-08-19T11:20:09;27.20;99.90
25570;DHT22;17955;45.542;9.238;2022-08-19T11:22:37;26.10;99.90
25570;DHT22;17955;45.542;9.238;2022-08-19T11:25:06;26.00;99.90
25570;DHT22;17955;45.542;9.238;2022-08-19T11:27:37;26.20;99.90
25570;DHT22;17955;45.542;9.238;2022-08-19T11:30:06;26.30;99.90
25570;DHT22;17955;45.542;9.238;2022-08-19T11:32:33;26.20;99.90
25570;DHT22;17955;45.542;9.238;2022-08-19T11:35:00;26.20;99.90
25570;DHT22;17955;45.542;9.238;2022-08-19T11:37:28;26.40;99.90
25570;DHT22;17955;45.542;9.238;2022-08-19T11:39:55;26.20;99.90
25570;DHT22;17955;45.542;9.238;2022-08-19T11:42:22;26.20;99.90
25570;DHT22;17955;45.542;9.238;2022-08-19T11:45:08;26.20;99.90
25570;DHT22;17955;45.542;9.238;2022-08-19T11:47:36;26.40;99.90
25570;DHT22;17955;45.542;9.238;2022-08-19T11:50:05;26.20;99.90
25570;DHT22;17955;45.542;9.238;2022-08-19T11:52:33;26.40;99.90
25570;DHT22;17955;45.542;9.238;2022-08-19T11:55:00;26.40;99.90
25570;DHT22;17955;45.542;9.238;2022-08-19T11:57:27;26.20;99.90
25570;DHT22;17955;45.542;9.238;2022-08-19T11:59:55;26.50;99.90
25570;DHT22;17955;45.542;9.238;2022-08-19T12:02:22;26.10;99.90
25570;DHT22;17955;45.542;9.238;2022-08-19T12:04:49;26.30;99.90
25570;DHT22;17955;45.542;9.238;2022-08-19T12:07:16;26.50;99.90
25570;DHT22;17955;45.542;9.238;2022-08-19T12:09:45;26.20;99.90
25570;DHT22;17955;45.542;9.238;2022-08-19T12:12:12;26.50;99.90
25570;DHT22;17955;45.542;9.238;2022-08-19T12:14:39;26.50;99.90
25570;DHT22;17955;45.542;9.238;2022-08-19T12:17:05;26.70;99.90
25570;DHT22;17955;45.542;9.238;2022-08-19T12:19:36;26.30;99.90
25570;DHT22;17955;45.542;9.238;2022-08-19T12:22:03;26.50;99.90
25570;DHT22;17955;45.542;9.238;2022-08-19T12:24:31;26.40;99.90
25570;DHT22;17955;45.542;9.238;2022-08-19T12:27:00;25.50;99.90
25570;DHT22;17955;45.542;9.238;2022-08-19T12:29:28;26.20;99.90
25570;DHT22;17955;45.542;9.238;2022-08-19T12:31:55;26.30;99.90
25570;DHT22;17955;45.542;9.238;2022-08-19T12:34:27;26.20;99.90
25570;DHT22;17955;45.542;9.238;2022-08-19T12:36:57;26.70;99.90
25570;DHT22;17955;45.542;9.238;2022-08-19T12:39:24;26.60;99.90
25570;DHT22;17955;45.542;9.238;2022-08-19T12:41:51;26.40;99.90
25570;DHT22;17955;45.542;9.238;2022-08-19T12:44:20;26.20;99.90
25570;DHT22;17955;45.542;9.238;2022-08-19T12:46:47;26.60;99.90
25570;DHT22;17955;45.542;9.238;2022-08-19T12:49:15;26.60;99.90
25570;DHT22;17955;45.542;9.238;2022-08-19T12:51:42;25.10;99.90
25570;DHT22;17955;45.542;9.238;2022-08-19T12:54:09;26.70;99.90
25570;DHT22;17955;45.542;9.238;2022-08-19T12:56:36;26.70;99.90
25570;DHT22;17955;45.542;9.238;2022-08-19T12:59:04;26.30;99.90
25570;DHT22;17955;45.542;9.238;2022-08-19T13:01:34;26.40;99.90
25570;DHT22;17955;45.542;9.238;2022-08-19T13:04:02;26.50;99.90
25570;DHT22;17955;45.542;9.238;2022-08-19T13:06:29;26.50;99.90
25570;DHT22;17955;45.542;9.238;2022-08-19T13:08:56;26.60;99.90
25570;DHT22;17955;45.542;9.238;2022-08-19T13:11:23;26.40;99.90
25570;DHT22;17955;45.542;9.238;2022-08-19T13:13:51;26.50;99.90
25570;DHT22;17955;45.542;9.238;2022-08-19T13:16:20;26.50;99.90
25570;DHT22;17955;45.542;9.238;2022-08-19T13:18:49;26.50;99.90
25570;DHT22;17955;45.542;9.238;2022-08-19T13:21:18;26.70;99.90
25570;DHT22;17955;45.542;9.238;2022-08-19T13:23:46;26.90;99.90
25570;DHT22;17955;45.542;9.238;2022-08-19T13:26:14;26.70;99.90
25570;DHT22;17955;45.542;9.238;2022-08-19T13:28:42;24.80;99.90
25570;DHT22;17955;45.542;9.238;2022-08-19T13:31:31;26.90;99.90
25570;DHT22;17955;45.542;9.238;2022-08-19T13:34:19;26.90;99.90
25570;DHT22;17955;45.542;9.238;2022-08-19T13:36:46;27.00;99.90
25570;DHT22;17955;45.542;9.238;2022-08-19T13:39:13;26.70;99.90
25570;DHT22;17955;45.542;9.238;2022-08-19T13:41:45;26.90;99.90
25570;DHT22;17955;45.542;9.238;2022-08-19T13:44:13;26.80;99.90
25570;DHT22;17955;45.542;9.238;2022-08-19T13:46:41;26.90;99.90
25570;DHT22;17955;45.542;9.238;2022-08-19T13:49:11;27.50;99.90
25570;DHT22;17955;45.542;9.238;2022-08-19T13:51:39;26.60;99.90
25570;DHT22;17955;45.542;9.238;2022-08-19T13:54:07;26.80;99.90
25570;DHT22;17955;45.542;9.238;2022-08-19T13:56:39;26.50;99.90
25570;DHT22;17955;45.542;9.238;2022-08-19T13:59:06;26.40;99.90
25570;DHT22;17955;45.542;9.238;2022-08-19T14:01:33;26.60;99.90
25570;DHT22;17955;45.542;9.238;2022-08-19T14:04:00;26.60;99.90
25570;DHT22;17955;45.542;9.238;2022-08-19T14:06:27;26.70;99.90
25570;DHT22;17955;45.542;9.238;2022-08-19T14:08:56;26.60;99.90
25570;DHT22;17955;45.542;9.238;2022-08-19T14:11:23;26.60;99.90
25570;DHT22;17955;45.542;9.238;2022-08-19T14:13:50;26.60;99.90
25570;DHT22;17955;45.542;9.238;2022-08-19T14:16:17;26.60;99.90
25570;DHT22;17955;45.542;9.238;2022-08-19T14:18:44;26.80;99.90
25570;DHT22;17955;45.542;9.238;2022-08-19T14:21:15;26.80;99.90
25570;DHT22;17955;45.542;9.238;2022-08-19T14:23:43;26.70;99.90
25570;DHT22;17955;45.542;9.238;2022-08-19T14:26:14;26.80;99.90
25570;DHT22;17955;45.542;9.238;2022-08-19T14:28:43;26.80;99.90
25570;DHT22;17955;45.542;9.238;2022-08-19T14:31:10;26.80;99.90
25570;DHT22;17955;45.542;9.238;2022-08-19T14:33:37;26.70;99.90
25570;DHT22;17955;45.542;9.238;2022-08-19T14:36:04;26.70;99.90
25570;DHT22;17955;45.542;9.238;2022-08-19T14:38:31;26.70;99.90
25570;DHT22;17955;45.542;9.238;2022-08-19T14:41:12;26.60;99.90
25570;DHT22;17955;45.542;9.238;2022-08-19T14:43:42;26.80;99.90
25570;DHT22;17955;45.542;9.238;2022-08-19T14:46:12;26.60;99.90
25570;DHT22;17955;45.542;9.238;2022-08-19T14:48:41;26.90;99.90
25570;DHT22;17955;45.542;9.238;2022-08-19T14:51:08;26.70;99.90
25570;DHT22;17955;45.542;9.238;2022-08-19T14:53:35;26.60;99.90
25570;DHT22;17955;45.542;9.238;2022-08-19T14:56:07;26.50;99.90
25570;DHT22;17955;45.542;9.238;2022-08-19T14:58:36;26.60;99.90
25570;DHT22;17955;45.542;9.238;2022-08-19T15:01:03;26.60;99.90
25570;DHT22;17955;45.542;9.238;2022-08-19T15:03:30;26.20;99.90
25570;DHT22;17955;45.542;9.238;2022-08-19T15:05:59;26.60;99.90
25570;DHT22;17955;45.542;9.238;2022-08-19T15:08:27;26.50;99.90
25570;DHT22;17955;45.542;9.238;2022-08-19T15:10:56;24.80;99.90
25570;DHT22;17955;45.542;9.238;2022-08-19T15:13:24;26.50;99.90
25570;DHT22;17955;45.542;9.238;2022-08-19T15:15:54;26.50;99.90
25570;DHT22;17955;45.542;9.238;2022-08-19T15:18:21;26.60;99.90
25570;DHT22;17955;45.542;9.238;2022-08-19T15:20:48;26.50;99.90
25570;DHT22;17955;45.542;9.238;2022-08-19T15:23:16;26.50;99.90
25570;DHT22;17955;45.542;9.238;2022-08-19T15:25:44;26.50;99.90
25570;DHT22;17955;45.542;9.238;2022-08-19T15:28:11;26.30;99.90
25570;DHT22;17955;45.542;9.238;2022-08-19T15:30:39;26.60;99.90
25570;DHT22;17955;45.542;9.238;2022-08-19T15:33:08;26.70;99.90
25570;DHT22;17955;45.542;9.238;2022-08-19T15:35:37;26.50;99.80
25570;DHT22;17955;45.542;9.238;2022-08-19T15:38:05;26.70;99.90
25570;DHT22;17955;45.542;9.238;2022-08-19T15:40:33;26.60;99.80
25570;DHT22;17955;45.542;9.238;2022-08-19T15:43:00;26.80;99.60
25570;DHT22;17955;45.542;9.238;2022-08-19T15:45:27;27.00;99.70
25570;DHT22;17955;45.542;9.238;2022-08-19T15:47:57;26.80;99.40
25570;DHT22;17955;45.542;9.238;2022-08-19T15:50:26;26.90;99.40
25570;DHT22;17955;45.542;9.238;2022-08-19T15:52:57;26.80;99.30
25570;DHT22;17955;45.542;9.238;2022-08-19T15:55:27;26.80;99.20
25570;DHT22;17955;45.542;9.238;2022-08-19T15:57:55;26.80;99.40
25570;DHT22;17955;45.542;9.238;2022-08-19T16:00:39;27.00;98.80
25570;DHT22;17955;45.542;9.238;2022-08-19T16:03:24;26.90;98.50
25570;DHT22;17955;45.542;9.238;2022-08-19T16:06:10;27.00;98.40
25570;DHT22;17955;45.542;9.238;2022-08-19T16:08:52;26.90;98.10
25570;DHT22;17955;45.542;9.238;2022-08-19T16:11:20;26.90;98.50
25570;DHT22;17955;45.542;9.238;2022-08-19T16:13:49;27.00;98.60
25570;DHT22;17955;45.542;9.238;2022-08-19T16:16:17;26.90;98.80
25570;DHT22;17955;45.542;9.238;2022-08-19T16:18:44;26.90;98.70
25570;DHT22;17955;45.542;9.238;2022-08-19T16:21:15;26.90;98.80
25570;DHT22;17955;45.542;9.238;2022-08-19T16:23:43;26.90;98.90
25570;DHT22;17955;45.542;9.238;2022-08-19T16:26:11;27.00;98.80
25570;DHT22;17955;45.542;9.238;2022-08-19T16:28:41;26.90;98.60
25570;DHT22;17955;45.542;9.238;2022-08-19T16:31:09;27.00;98.10
25570;DHT22;17955;45.542;9.238;2022-08-19T16:33:37;26.90;97.60
25570;DHT22;17955;45.542;9.238;2022-08-19T16:36:05;27.00;97.90
25570;DHT22;17955;45.542;9.238;2022-08-19T16:38:33;27.00;97.90
25570;DHT22;17955;45.542;9.238;2022-08-19T16:41:02;26.90;97.90